METAR Data
IDs: Format: Raw Decoded Include TAF

Data at: 0220 UTC 06 Dec 2020

METAR for:KHLB (Batesville Arpt, IN, US)
Text:KHLB 060220Z AUTO 00000KT 10SM SCT025 M02/M02 A3011 RMK A01
Temperature: -2.0°C ( 28°F)
Dewpoint: -2.0°C ( 28°F) [RH = 100%]
Pressure (altimeter):30.11 inches Hg (1019.7 mb)
Winds:calm
Visibility:10 or more sm (16+ km)
Ceiling:at least 12,000 feet AGL
Clouds: scattered clouds at 2500 feet AGL
QC Flag:automated observation with no human augmentation
Text:KHLB 060200Z AUTO 00000KT 10SM FEW026 M02/M02 A3012 RMK A01
Temperature: -2.0°C ( 28°F)
Dewpoint: -2.0°C ( 28°F) [RH = 100%]
Pressure (altimeter):30.12 inches Hg (1020.1 mb)
Winds:calm
Visibility:10 or more sm (16+ km)
Ceiling:at least 12,000 feet AGL
Clouds: few clouds at 2600 feet AGL
QC Flag:automated observation with no human augmentation
Text:KHLB 060140Z AUTO 00000KT 10SM SCT024 M02/M02 A3012 RMK A01
Temperature: -2.0°C ( 28°F)
Dewpoint: -2.0°C ( 28°F) [RH = 100%]
Pressure (altimeter):30.12 inches Hg (1020.1 mb)
Winds:calm
Visibility:10 or more sm (16+ km)
Ceiling:at least 12,000 feet AGL
Clouds: scattered clouds at 2400 feet AGL
QC Flag:automated observation with no human augmentation
Text:KHLB 060120Z AUTO 00000KT 10SM SCT025 M02/M02 A3011 RMK A01
Temperature: -2.0°C ( 28°F)
Dewpoint: -2.0°C ( 28°F) [RH = 100%]
Pressure (altimeter):30.11 inches Hg (1019.7 mb)
Winds:calm
Visibility:10 or more sm (16+ km)
Ceiling:at least 12,000 feet AGL
Clouds: scattered clouds at 2500 feet AGL
QC Flag:automated observation with no human augmentation
Text:KHLB 060100Z AUTO 00000KT 10SM FEW025 SCT030 M01/M03 A3011 RMK A01
Temperature: -1.0°C ( 30°F)
Dewpoint: -3.0°C ( 27°F) [RH = 86%]
Pressure (altimeter):30.11 inches Hg (1019.7 mb)
Winds:calm
Visibility:10 or more sm (16+ km)
Ceiling:at least 12,000 feet AGL
Clouds: few clouds at 2500 feet AGL, scattered clouds at 3000 feet AGL
QC Flag:automated observation with no human augmentation
Text:KHLB 060040Z AUTO 00000KT 10SM CLR M01/M03 A3010 RMK A01
Temperature: -1.0°C ( 30°F)
Dewpoint: -3.0°C ( 27°F) [RH = 86%]
Pressure (altimeter):30.10 inches Hg (1019.4 mb)
Winds:calm
Visibility:10 or more sm (16+ km)
Ceiling:at least 12,000 feet AGL
Clouds:sky clear below 12,000 feet AGL
QC Flag:automated observation with no human augmentation
Text:KHLB 060020Z AUTO 00000KT 10SM CLR M01/M02 A3010 RMK A01
Temperature: -1.0°C ( 30°F)
Dewpoint: -2.0°C ( 28°F) [RH = 93%]
Pressure (altimeter):30.10 inches Hg (1019.4 mb)
Winds:calm
Visibility:10 or more sm (16+ km)
Ceiling:at least 12,000 feet AGL
Clouds:sky clear below 12,000 feet AGL
QC Flag:automated observation with no human augmentation
Text:KHLB 060000Z AUTO 00000KT 10SM FEW025 FEW030 FEW036 M00/M03 A3010 RMK A01
Temperature: 0.0°C ( 32°F)
Dewpoint: -3.0°C ( 27°F) [RH = 80%]
Pressure (altimeter):30.10 inches Hg (1019.4 mb)
Winds:calm
Visibility:10 or more sm (16+ km)
Ceiling:at least 12,000 feet AGL
Clouds: few clouds at 2500 feet AGL, few clouds at 3000 feet AGL, few clouds at 3600 feet AGL
QC Flag:automated observation with no human augmentation
Text:KHLB 052340Z AUTO 00000KT 10SM FEW025 00/M03 A3010 RMK A01
Temperature: 0.0°C ( 32°F)
Dewpoint: -3.0°C ( 27°F) [RH = 80%]
Pressure (altimeter):30.10 inches Hg (1019.4 mb)
Winds:calm
Visibility:10 or more sm (16+ km)
Ceiling:at least 12,000 feet AGL
Clouds: few clouds at 2500 feet AGL
QC Flag:automated observation with no human augmentation
Text:KHLB 052320Z AUTO 00000KT 10SM BKN023 01/M02 A3010 RMK A01
Temperature: 1.0°C ( 34°F)
Dewpoint: -2.0°C ( 28°F) [RH = 80%]
Pressure (altimeter):30.10 inches Hg (1019.4 mb)
Winds:calm
Visibility:10 or more sm (16+ km)
Ceiling:2300 feet AGL
Clouds: broken clouds at 2300 feet AGL
QC Flag:automated observation with no human augmentation
Text:KHLB 052300Z AUTO VRB03KT 10SM BKN024 01/M02 A3010 RMK A01
Temperature: 1.0°C ( 34°F)
Dewpoint: -2.0°C ( 28°F) [RH = 80%]
Pressure (altimeter):30.10 inches Hg (1019.4 mb)
Winds:variable direction winds at 3 MPH (3 knots; 1.5 m/s)
Visibility:10 or more sm (16+ km)
Ceiling:2400 feet AGL
Clouds: broken clouds at 2400 feet AGL
QC Flag:automated observation with no human augmentation
Text:KHLB 052240Z AUTO VRB05KT 10SM BKN024 02/M02 A3010 RMK A01
Temperature: 2.0°C ( 36°F)
Dewpoint: -2.0°C ( 28°F) [RH = 75%]
Pressure (altimeter):30.10 inches Hg (1019.4 mb)
Winds:variable direction winds at 6 MPH (5 knots; 2.6 m/s)
Visibility:10 or more sm (16+ km)
Ceiling:2400 feet AGL
Clouds: broken clouds at 2400 feet AGL
QC Flag:automated observation with no human augmentation
Text:KHLB 052220Z AUTO VRB03KT 10SM BKN023 02/M02 A3011 RMK A01
Temperature: 2.0°C ( 36°F)
Dewpoint: -2.0°C ( 28°F) [RH = 75%]
Pressure (altimeter):30.11 inches Hg (1019.7 mb)
Winds:variable direction winds at 3 MPH (3 knots; 1.5 m/s)
Visibility:10 or more sm (16+ km)
Ceiling:2300 feet AGL
Clouds: broken clouds at 2300 feet AGL
QC Flag:automated observation with no human augmentation
Text:KHLB 052200Z AUTO 00000KT 10SM OVC023 02/M02 A3011 RMK A01
Temperature: 2.0°C ( 36°F)
Dewpoint: -2.0°C ( 28°F) [RH = 75%]
Pressure (altimeter):30.11 inches Hg (1019.7 mb)
Winds:calm
Visibility:10 or more sm (16+ km)
Ceiling:2300 feet AGL
Clouds: overcast cloud deck at 2300 feet AGL
QC Flag:automated observation with no human augmentation
Text:KHLB 052140Z AUTO 32004KT 10SM OVC023 03/M01 A3011 RMK A01
Temperature: 3.0°C ( 37°F)
Dewpoint: -1.0°C ( 30°F) [RH = 75%]
Pressure (altimeter):30.11 inches Hg (1019.7 mb)
Winds:from the NW (320 degrees) at 5 MPH (4 knots; 2.1 m/s)
Visibility:10 or more sm (16+ km)
Ceiling:2300 feet AGL
Clouds: overcast cloud deck at 2300 feet AGL
QC Flag:automated observation with no human augmentation
Text:KHLB 052120Z AUTO 32006KT 10SM OVC023 03/M01 A3010 RMK A01
Temperature: 3.0°C ( 37°F)
Dewpoint: -1.0°C ( 30°F) [RH = 75%]
Pressure (altimeter):30.10 inches Hg (1019.4 mb)
Winds:from the NW (320 degrees) at 7 MPH (6 knots; 3.1 m/s)
Visibility:10 or more sm (16+ km)
Ceiling:2300 feet AGL
Clouds: overcast cloud deck at 2300 feet AGL
QC Flag:automated observation with no human augmentation
Text:KHLB 052100Z AUTO VRB05KT 10SM OVC023 03/M01 A3010 RMK A01
Temperature: 3.0°C ( 37°F)
Dewpoint: -1.0°C ( 30°F) [RH = 75%]
Pressure (altimeter):30.10 inches Hg (1019.4 mb)
Winds:variable direction winds at 6 MPH (5 knots; 2.6 m/s)
Visibility:10 or more sm (16+ km)
Ceiling:2300 feet AGL
Clouds: overcast cloud deck at 2300 feet AGL
QC Flag:automated observation with no human augmentation
Text:KHLB 052040Z AUTO VRB04KT 10SM BKN024 04/M01 A3010 RMK A01
Temperature: 4.0°C ( 39°F)
Dewpoint: -1.0°C ( 30°F) [RH = 70%]
Pressure (altimeter):30.10 inches Hg (1019.4 mb)
Winds:variable direction winds at 5 MPH (4 knots; 2.1 m/s)
Visibility:10 or more sm (16+ km)
Ceiling:2400 feet AGL
Clouds: broken clouds at 2400 feet AGL
QC Flag:automated observation with no human augmentation
Text:KHLB 052020Z AUTO VRB05G12KT 10SM BKN023 04/M01 A3010 RMK A01
Temperature: 4.0°C ( 39°F)
Dewpoint: -1.0°C ( 30°F) [RH = 70%]
Pressure (altimeter):30.10 inches Hg (1019.4 mb)
Winds:variable direction winds at 6 MPH (5 knots; 2.6 m/s) gusting to 14 MPH (12 knots; 6.2 m/s)
Visibility:10 or more sm (16+ km)
Ceiling:2300 feet AGL
Clouds: broken clouds at 2300 feet AGL
QC Flag:automated observation with no human augmentation
Text:KHLB 052000Z AUTO 32008KT 10SM BKN022 03/M01 A3010 RMK A01
Temperature: 3.0°C ( 37°F)
Dewpoint: -1.0°C ( 30°F) [RH = 75%]
Pressure (altimeter):30.10 inches Hg (1019.4 mb)
Winds:from the NW (320 degrees) at 9 MPH (8 knots; 4.1 m/s)
Visibility:10 or more sm (16+ km)
Ceiling:2200 feet AGL
Clouds: broken clouds at 2200 feet AGL
QC Flag:automated observation with no human augmentation
Text:KHLB 051940Z AUTO VRB06KT 10SM OVC022 04/M01 A3010 RMK A01
Temperature: 4.0°C ( 39°F)
Dewpoint: -1.0°C ( 30°F) [RH = 70%]
Pressure (altimeter):30.10 inches Hg (1019.4 mb)
Winds:variable direction winds at 7 MPH (6 knots; 3.1 m/s)
Visibility:10 or more sm (16+ km)
Ceiling:2200 feet AGL
Clouds: overcast cloud deck at 2200 feet AGL
QC Flag:automated observation with no human augmentation
Text:KHLB 051920Z AUTO 36006KT 10SM OVC023 04/M01 A3011 RMK A01
Temperature: 4.0°C ( 39°F)
Dewpoint: -1.0°C ( 30°F) [RH = 70%]
Pressure (altimeter):30.11 inches Hg (1019.7 mb)
Winds:from the N (360 degrees) at 7 MPH (6 knots; 3.1 m/s)
Visibility:10 or more sm (16+ km)
Ceiling:2300 feet AGL
Clouds: overcast cloud deck at 2300 feet AGL
QC Flag:automated observation with no human augmentation
Text:KHLB 051900Z AUTO 33007KT 10SM SCT023 05/M01 A3010 RMK A01
Temperature: 5.0°C ( 41°F)
Dewpoint: -1.0°C ( 30°F) [RH = 65%]
Pressure (altimeter):30.10 inches Hg (1019.4 mb)
Winds:from the NNW (330 degrees) at 8 MPH (7 knots; 3.6 m/s)
Visibility:10 or more sm (16+ km)
Ceiling:at least 12,000 feet AGL
Clouds: scattered clouds at 2300 feet AGL
QC Flag:automated observation with no human augmentation
Text:KHLB 051840Z AUTO 32007KT 10SM CLR 04/M01 A3011 RMK A01
Temperature: 4.0°C ( 39°F)
Dewpoint: -1.0°C ( 30°F) [RH = 70%]
Pressure (altimeter):30.11 inches Hg (1019.7 mb)
Winds:from the NW (320 degrees) at 8 MPH (7 knots; 3.6 m/s)
Visibility:10 or more sm (16+ km)
Ceiling:at least 12,000 feet AGL
Clouds:sky clear below 12,000 feet AGL
QC Flag:automated observation with no human augmentation
Text:KHLB 051820Z AUTO 32006KT 10SM CLR 04/M01 A3011 RMK A01
Temperature: 4.0°C ( 39°F)
Dewpoint: -1.0°C ( 30°F) [RH = 70%]
Pressure (altimeter):30.11 inches Hg (1019.7 mb)
Winds:from the NW (320 degrees) at 7 MPH (6 knots; 3.1 m/s)
Visibility:10 or more sm (16+ km)
Ceiling:at least 12,000 feet AGL
Clouds:sky clear below 12,000 feet AGL
QC Flag:automated observation with no human augmentation
Text:KHLB 051800Z AUTO 00000KT 10SM FEW023 04/M01 A3011 RMK A01
Temperature: 4.0°C ( 39°F)
Dewpoint: -1.0°C ( 30°F) [RH = 70%]
Pressure (altimeter):30.11 inches Hg (1019.7 mb)
Winds:calm
Visibility:10 or more sm (16+ km)
Ceiling:at least 12,000 feet AGL
Clouds: few clouds at 2300 feet AGL
QC Flag:automated observation with no human augmentation
Text:KHLB 051740Z AUTO 32007KT 290V010 10SM CLR 05/M01 A3012 RMK A01
Temperature: 5.0°C ( 41°F)
Dewpoint: -1.0°C ( 30°F) [RH = 65%]
Pressure (altimeter):30.12 inches Hg (1020.1 mb)
Winds:from the NW (320 degrees) at 8 MPH (7 knots; 3.6 m/s)
Visibility:10 or more sm (16+ km)
Ceiling:at least 12,000 feet AGL
Clouds:sky clear below 12,000 feet AGL
QC Flag:automated observation with no human augmentation
Text:KHLB 051720Z AUTO VRB06KT 10SM CLR 05/M01 A3012 RMK A01
Temperature: 5.0°C ( 41°F)
Dewpoint: -1.0°C ( 30°F) [RH = 65%]
Pressure (altimeter):30.12 inches Hg (1020.1 mb)
Winds:variable direction winds at 7 MPH (6 knots; 3.1 m/s)
Visibility:10 or more sm (16+ km)
Ceiling:at least 12,000 feet AGL
Clouds:sky clear below 12,000 feet AGL
QC Flag:automated observation with no human augmentation
Text:KHLB 051700Z AUTO VRB04G10KT 10SM CLR 04/M01 A3013 RMK A01
Temperature: 4.0°C ( 39°F)
Dewpoint: -1.0°C ( 30°F) [RH = 70%]
Pressure (altimeter):30.13 inches Hg (1020.4 mb)
Winds:variable direction winds at 5 MPH (4 knots; 2.1 m/s) gusting to 12 MPH (10 knots; 5.1 m/s)
Visibility:10 or more sm (16+ km)
Ceiling:at least 12,000 feet AGL
Clouds:sky clear below 12,000 feet AGL
QC Flag:automated observation with no human augmentation
Text:KHLB 051640Z AUTO VRB04KT 10SM CLR 04/M01 A3013 RMK A01
Temperature: 4.0°C ( 39°F)
Dewpoint: -1.0°C ( 30°F) [RH = 70%]
Pressure (altimeter):30.13 inches Hg (1020.4 mb)
Winds:variable direction winds at 5 MPH (4 knots; 2.1 m/s)
Visibility:10 or more sm (16+ km)
Ceiling:at least 12,000 feet AGL
Clouds:sky clear below 12,000 feet AGL
QC Flag:automated observation with no human augmentation
Text:KHLB 051620Z AUTO VRB04KT 10SM CLR 04/M00 A3013 RMK A01
Temperature: 4.0°C ( 39°F)
Dewpoint: 0.0°C ( 32°F) [RH = 75%]
Pressure (altimeter):30.13 inches Hg (1020.4 mb)
Winds:variable direction winds at 5 MPH (4 knots; 2.1 m/s)
Visibility:10 or more sm (16+ km)
Ceiling:at least 12,000 feet AGL
Clouds:sky clear below 12,000 feet AGL
QC Flag:automated observation with no human augmentation
Text:KHLB 051600Z AUTO 00000KT 10SM CLR 03/00 A3013 RMK A01
Temperature: 3.0°C ( 37°F)
Dewpoint: 0.0°C ( 32°F) [RH = 81%]
Pressure (altimeter):30.13 inches Hg (1020.4 mb)
Winds:calm
Visibility:10 or more sm (16+ km)
Ceiling:at least 12,000 feet AGL
Clouds:sky clear below 12,000 feet AGL
QC Flag:automated observation with no human augmentation
Text:KHLB 051540Z AUTO VRB03KT 10SM CLR 02/01 A3013 RMK A01
Temperature: 2.0°C ( 36°F)
Dewpoint: 1.0°C ( 34°F) [RH = 93%]
Pressure (altimeter):30.13 inches Hg (1020.4 mb)
Winds:variable direction winds at 3 MPH (3 knots; 1.5 m/s)
Visibility:10 or more sm (16+ km)
Ceiling:at least 12,000 feet AGL
Clouds:sky clear below 12,000 feet AGL
QC Flag:automated observation with no human augmentation
Text:KHLB 051520Z AUTO 00000KT 10SM CLR 02/01 A3012 RMK A01
Temperature: 2.0°C ( 36°F)
Dewpoint: 1.0°C ( 34°F) [RH = 93%]
Pressure (altimeter):30.12 inches Hg (1020.1 mb)
Winds:calm
Visibility:10 or more sm (16+ km)
Ceiling:at least 12,000 feet AGL
Clouds:sky clear below 12,000 feet AGL
QC Flag:automated observation with no human augmentation
Text:KHLB 051500Z AUTO VRB03KT 10SM CLR 01/01 A3013 RMK A01
Temperature: 1.0°C ( 34°F)
Dewpoint: 1.0°C ( 34°F) [RH = 100%]
Pressure (altimeter):30.13 inches Hg (1020.4 mb)
Winds:variable direction winds at 3 MPH (3 knots; 1.5 m/s)
Visibility:10 or more sm (16+ km)
Ceiling:at least 12,000 feet AGL
Clouds:sky clear below 12,000 feet AGL
QC Flag:automated observation with no human augmentation
Text:KHLB 051440Z AUTO 30004KT 8SM CLR 00/00 A3012 RMK A01
Temperature: 0.0°C ( 32°F)
Dewpoint: 0.0°C ( 32°F) [RH = 100%]
Pressure (altimeter):30.12 inches Hg (1020.1 mb)
Winds:from the WNW (300 degrees) at 5 MPH (4 knots; 2.1 m/s)
Visibility: 8 sm ( 13 km)
Ceiling:at least 12,000 feet AGL
Clouds:sky clear below 12,000 feet AGL
QC Flag:automated observation with no human augmentation
Text:KHLB 051420Z AUTO VRB03KT 6SM BR CLR M00/M00 A3011 RMK A01
Temperature: 0.0°C ( 32°F)
Dewpoint: 0.0°C ( 32°F) [RH = 100%]
Pressure (altimeter):30.11 inches Hg (1019.7 mb)
Winds:variable direction winds at 3 MPH (3 knots; 1.5 m/s)
Visibility: 6 sm ( 10 km)
Ceiling:at least 12,000 feet AGL
Clouds:sky clear below 12,000 feet AGL
Weather:BR (mist)
QC Flag:automated observation with no human augmentation
Text:KHLB 051400Z AUTO 31004KT 5SM BR CLR M01/M01 A3010 RMK A01
Temperature: -1.0°C ( 30°F)
Dewpoint: -1.0°C ( 30°F) [RH = 100%]
Pressure (altimeter):30.10 inches Hg (1019.4 mb)
Winds:from the NW (310 degrees) at 5 MPH (4 knots; 2.1 m/s)
Visibility: 5 sm ( 8 km)
Ceiling:at least 12,000 feet AGL
Clouds:sky clear below 12,000 feet AGL
Weather:BR (mist)
QC Flag:automated observation with no human augmentation
Text:KHLB 051340Z AUTO 00000KT 3SM BR CLR M02/M02 A3010 RMK A01
Temperature: -2.0°C ( 28°F)
Dewpoint: -2.0°C ( 28°F) [RH = 100%]
Pressure (altimeter):30.10 inches Hg (1019.4 mb)
Winds:calm
Visibility: 3 sm ( 5 km)
Ceiling:at least 12,000 feet AGL
Clouds:sky clear below 12,000 feet AGL
Weather:BR (mist)
QC Flag:automated observation with no human augmentation
Text:KHLB 051320Z AUTO 00000KT 2 1/2SM BR CLR M03/M03 A3009 RMK A01
Temperature: -3.0°C ( 27°F)
Dewpoint: -3.0°C ( 27°F) [RH = 100%]
Pressure (altimeter):30.09 inches Hg (1019.0 mb)
Winds:calm
Visibility: 2.50 sm ( 4.02 km)
Ceiling:at least 12,000 feet AGL
Clouds:sky clear below 12,000 feet AGL
Weather:BR (mist)
QC Flag:automated observation with no human augmentation
Text:KHLB 051300Z AUTO 31003KT 2 1/2SM BR CLR M03/M03 A3009 RMK A01
Temperature: -3.0°C ( 27°F)
Dewpoint: -3.0°C ( 27°F) [RH = 100%]
Pressure (altimeter):30.09 inches Hg (1019.0 mb)
Winds:from the NW (310 degrees) at 3 MPH (3 knots; 1.5 m/s)
Visibility: 2.50 sm ( 4.02 km)
Ceiling:at least 12,000 feet AGL
Clouds:sky clear below 12,000 feet AGL
Weather:BR (mist)
QC Flag:automated observation with no human augmentation
Text:KHLB 051240Z AUTO 30004KT 3SM BR SCT029 M03/M03 A3008 RMK A01
Temperature: -3.0°C ( 27°F)
Dewpoint: -3.0°C ( 27°F) [RH = 100%]
Pressure (altimeter):30.08 inches Hg (1018.7 mb)
Winds:from the WNW (300 degrees) at 5 MPH (4 knots; 2.1 m/s)
Visibility: 3 sm ( 5 km)
Ceiling:at least 12,000 feet AGL
Clouds: scattered clouds at 2900 feet AGL
Weather:BR (mist)
QC Flag:automated observation with no human augmentation
Text:KHLB 051220Z AUTO 00000KT 4SM BR BKN029 M03/M03 A3008 RMK A01
Temperature: -3.0°C ( 27°F)
Dewpoint: -3.0°C ( 27°F) [RH = 100%]
Pressure (altimeter):30.08 inches Hg (1018.7 mb)
Winds:calm
Visibility: 4 sm ( 6 km)
Ceiling:2900 feet AGL
Clouds: broken clouds at 2900 feet AGL
Weather:BR (mist)
QC Flag:automated observation with no human augmentation
Text:KHLB 051200Z AUTO 00000KT 3SM BR BKN026 BKN030 M03/M03 A3007 RMK A01
Temperature: -3.0°C ( 27°F)
Dewpoint: -3.0°C ( 27°F) [RH = 100%]
Pressure (altimeter):30.07 inches Hg (1018.4 mb)
Winds:calm
Visibility: 3 sm ( 5 km)
Ceiling:2600 feet AGL
Clouds: broken clouds at 2600 feet AGL, broken clouds at 3000 feet AGL
Weather:BR (mist)
QC Flag:automated observation with no human augmentation
Text:KHLB 051140Z AUTO 00000KT 4SM BR BKN026 BKN031 M03/M03 A3007 RMK A01
Temperature: -3.0°C ( 27°F)
Dewpoint: -3.0°C ( 27°F) [RH = 100%]
Pressure (altimeter):30.07 inches Hg (1018.4 mb)
Winds:calm
Visibility: 4 sm ( 6 km)
Ceiling:2600 feet AGL
Clouds: broken clouds at 2600 feet AGL, broken clouds at 3100 feet AGL
Weather:BR (mist)
QC Flag:automated observation with no human augmentation
Text:KHLB 051120Z AUTO 00000KT 3SM BR SCT026 M03/M03 A3006 RMK A01
Temperature: -3.0°C ( 27°F)
Dewpoint: -3.0°C ( 27°F) [RH = 100%]
Pressure (altimeter):30.06 inches Hg (1018.0 mb)
Winds:calm
Visibility: 3 sm ( 5 km)
Ceiling:at least 12,000 feet AGL
Clouds: scattered clouds at 2600 feet AGL
Weather:BR (mist)
QC Flag:automated observation with no human augmentation
Text:KHLB 051100Z AUTO 00000KT 4SM BR FEW027 M02/M02 A3005 RMK A01
Temperature: -2.0°C ( 28°F)
Dewpoint: -2.0°C ( 28°F) [RH = 100%]
Pressure (altimeter):30.05 inches Hg (1017.7 mb)
Winds:calm
Visibility: 4 sm ( 6 km)
Ceiling:at least 12,000 feet AGL
Clouds: few clouds at 2700 feet AGL
Weather:BR (mist)
QC Flag:automated observation with no human augmentation
Text:KHLB 051040Z AUTO 00000KT 3SM BR FEW025 FEW030 M03/M03 A3005 RMK A01
Temperature: -3.0°C ( 27°F)
Dewpoint: -3.0°C ( 27°F) [RH = 100%]
Pressure (altimeter):30.05 inches Hg (1017.7 mb)
Winds:calm
Visibility: 3 sm ( 5 km)
Ceiling:at least 12,000 feet AGL
Clouds: few clouds at 2500 feet AGL, few clouds at 3000 feet AGL
Weather:BR (mist)
QC Flag:automated observation with no human augmentation
Text:KHLB 051020Z AUTO 00000KT 5SM BR FEW026 M03/M03 A3005 RMK A01
Temperature: -3.0°C ( 27°F)
Dewpoint: -3.0°C ( 27°F) [RH = 100%]
Pressure (altimeter):30.05 inches Hg (1017.7 mb)
Winds:calm
Visibility: 5 sm ( 8 km)
Ceiling:at least 12,000 feet AGL
Clouds: few clouds at 2600 feet AGL
Weather:BR (mist)
QC Flag:automated observation with no human augmentation
Text:KHLB 051000Z AUTO 00000KT 5SM BR FEW025 FEW030 M02/M02 A3004 RMK A01
Temperature: -2.0°C ( 28°F)
Dewpoint: -2.0°C ( 28°F) [RH = 100%]
Pressure (altimeter):30.04 inches Hg (1017.4 mb)
Winds:calm
Visibility: 5 sm ( 8 km)
Ceiling:at least 12,000 feet AGL
Clouds: few clouds at 2500 feet AGL, few clouds at 3000 feet AGL
Weather:BR (mist)
QC Flag:automated observation with no human augmentation
Text:KHLB 050940Z AUTO 28003KT 6SM BR FEW026 M01/M01 A3003 RMK A01
Temperature: -1.0°C ( 30°F)
Dewpoint: -1.0°C ( 30°F) [RH = 100%]
Pressure (altimeter):30.03 inches Hg (1017.0 mb)
Winds:from the W (280 degrees) at 3 MPH (3 knots; 1.5 m/s)
Visibility: 6 sm ( 10 km)
Ceiling:at least 12,000 feet AGL
Clouds: few clouds at 2600 feet AGL
Weather:BR (mist)
QC Flag:automated observation with no human augmentation
Text:KHLB 050920Z AUTO 00000KT 5SM BR FEW029 M02/M02 A3003 RMK A01
Temperature: -2.0°C ( 28°F)
Dewpoint: -2.0°C ( 28°F) [RH = 100%]
Pressure (altimeter):30.03 inches Hg (1017.0 mb)
Winds:calm
Visibility: 5 sm ( 8 km)
Ceiling:at least 12,000 feet AGL
Clouds: few clouds at 2900 feet AGL
Weather:BR (mist)
QC Flag:automated observation with no human augmentation
Text:KHLB 050900Z AUTO 00000KT 6SM BR CLR M01/M01 A3003 RMK A01
Temperature: -1.0°C ( 30°F)
Dewpoint: -1.0°C ( 30°F) [RH = 100%]
Pressure (altimeter):30.03 inches Hg (1017.0 mb)
Winds:calm
Visibility: 6 sm ( 10 km)
Ceiling:at least 12,000 feet AGL
Clouds:sky clear below 12,000 feet AGL
Weather:BR (mist)
QC Flag:automated observation with no human augmentation
Text:KHLB 050840Z AUTO 00000KT 8SM FEW028 M01/M01 A3002 RMK A01
Temperature: -1.0°C ( 30°F)
Dewpoint: -1.0°C ( 30°F) [RH = 100%]
Pressure (altimeter):30.02 inches Hg (1016.7 mb)
Winds:calm
Visibility: 8 sm ( 13 km)
Ceiling:at least 12,000 feet AGL
Clouds: few clouds at 2800 feet AGL
QC Flag:automated observation with no human augmentation
Text:KHLB 050820Z AUTO 00000KT 10SM CLR M00/M00 A3002 RMK A01
Temperature: 0.0°C ( 32°F)
Dewpoint: 0.0°C ( 32°F) [RH = 100%]
Pressure (altimeter):30.02 inches Hg (1016.7 mb)
Winds:calm
Visibility:10 or more sm (16+ km)
Ceiling:at least 12,000 feet AGL
Clouds:sky clear below 12,000 feet AGL
QC Flag:automated observation with no human augmentation
Text:KHLB 050800Z AUTO 30004KT 8SM CLR M01/M01 A3001 RMK A01
Temperature: -1.0°C ( 30°F)
Dewpoint: -1.0°C ( 30°F) [RH = 100%]
Pressure (altimeter):30.01 inches Hg (1016.3 mb)
Winds:from the WNW (300 degrees) at 5 MPH (4 knots; 2.1 m/s)
Visibility: 8 sm ( 13 km)
Ceiling:at least 12,000 feet AGL
Clouds:sky clear below 12,000 feet AGL
QC Flag:automated observation with no human augmentation
Text:KHLB 050740Z AUTO 28004KT 10SM FEW030 M00/M00 A3001 RMK A01
Temperature: 0.0°C ( 32°F)
Dewpoint: 0.0°C ( 32°F) [RH = 100%]
Pressure (altimeter):30.01 inches Hg (1016.3 mb)
Winds:from the W (280 degrees) at 5 MPH (4 knots; 2.1 m/s)
Visibility:10 or more sm (16+ km)
Ceiling:at least 12,000 feet AGL
Clouds: few clouds at 3000 feet AGL
QC Flag:automated observation with no human augmentation
Text:KHLB 050720Z AUTO 28003KT 9SM FEW030 M00/M00 A3001 RMK A01
Temperature: 0.0°C ( 32°F)
Dewpoint: 0.0°C ( 32°F) [RH = 100%]
Pressure (altimeter):30.01 inches Hg (1016.3 mb)
Winds:from the W (280 degrees) at 3 MPH (3 knots; 1.5 m/s)
Visibility: 9 sm ( 14 km)
Ceiling:at least 12,000 feet AGL
Clouds: few clouds at 3000 feet AGL
QC Flag:automated observation with no human augmentation
Text:KHLB 050700Z AUTO 28003KT 10SM FEW033 01/01 A3000 RMK A01
Temperature: 1.0°C ( 34°F)
Dewpoint: 1.0°C ( 34°F) [RH = 100%]
Pressure (altimeter):30.00 inches Hg (1016.0 mb)
Winds:from the W (280 degrees) at 3 MPH (3 knots; 1.5 m/s)
Visibility:10 or more sm (16+ km)
Ceiling:at least 12,000 feet AGL
Clouds: few clouds at 3300 feet AGL
QC Flag:automated observation with no human augmentation
Text:KHLB 050640Z AUTO 00000KT 10SM SCT033 01/01 A3000 RMK A01
Temperature: 1.0°C ( 34°F)
Dewpoint: 1.0°C ( 34°F) [RH = 100%]
Pressure (altimeter):30.00 inches Hg (1016.0 mb)
Winds:calm
Visibility:10 or more sm (16+ km)
Ceiling:at least 12,000 feet AGL
Clouds: scattered clouds at 3300 feet AGL
QC Flag:automated observation with no human augmentation
Text:KHLB 050620Z AUTO 00000KT 10SM FEW035 01/01 A2999 RMK A01
Temperature: 1.0°C ( 34°F)
Dewpoint: 1.0°C ( 34°F) [RH = 100%]
Pressure (altimeter):29.99 inches Hg (1015.7 mb)
Winds:calm
Visibility:10 or more sm (16+ km)
Ceiling:at least 12,000 feet AGL
Clouds: few clouds at 3500 feet AGL
QC Flag:automated observation with no human augmentation
Text:KHLB 050600Z AUTO 00000KT 10SM FEW036 01/01 A2999 RMK A01
Temperature: 1.0°C ( 34°F)
Dewpoint: 1.0°C ( 34°F) [RH = 100%]
Pressure (altimeter):29.99 inches Hg (1015.7 mb)
Winds:calm
Visibility:10 or more sm (16+ km)
Ceiling:at least 12,000 feet AGL
Clouds: few clouds at 3600 feet AGL
QC Flag:automated observation with no human augmentation
Text:KHLB 050540Z AUTO 00000KT 10SM SCT036 01/01 A2999 RMK A01
Temperature: 1.0°C ( 34°F)
Dewpoint: 1.0°C ( 34°F) [RH = 100%]
Pressure (altimeter):29.99 inches Hg (1015.7 mb)
Winds:calm
Visibility:10 or more sm (16+ km)
Ceiling:at least 12,000 feet AGL
Clouds: scattered clouds at 3600 feet AGL
QC Flag:automated observation with no human augmentation
Text:KHLB 050520Z AUTO 00000KT 10SM FEW033 FEW040 01/01 A2999 RMK A01
Temperature: 1.0°C ( 34°F)
Dewpoint: 1.0°C ( 34°F) [RH = 100%]
Pressure (altimeter):29.99 inches Hg (1015.7 mb)
Winds:calm
Visibility:10 or more sm (16+ km)
Ceiling:at least 12,000 feet AGL
Clouds: few clouds at 3300 feet AGL, few clouds at 4000 feet AGL
QC Flag:automated observation with no human augmentation
Text:KHLB 050500Z AUTO 00000KT 10SM CLR 01/01 A2999 RMK A01
Temperature: 1.0°C ( 34°F)
Dewpoint: 1.0°C ( 34°F) [RH = 100%]
Pressure (altimeter):29.99 inches Hg (1015.7 mb)
Winds:calm
Visibility:10 or more sm (16+ km)
Ceiling:at least 12,000 feet AGL
Clouds:sky clear below 12,000 feet AGL
QC Flag:automated observation with no human augmentation
Text:KHLB 050440Z AUTO 00000KT 10SM CLR 01/01 A2999 RMK A01
Temperature: 1.0°C ( 34°F)
Dewpoint: 1.0°C ( 34°F) [RH = 100%]
Pressure (altimeter):29.99 inches Hg (1015.7 mb)
Winds:calm
Visibility:10 or more sm (16+ km)
Ceiling:at least 12,000 feet AGL
Clouds:sky clear below 12,000 feet AGL
QC Flag:automated observation with no human augmentation
Text:KHLB 050420Z AUTO 00000KT 10SM CLR 01/01 A2998 RMK A01
Temperature: 1.0°C ( 34°F)
Dewpoint: 1.0°C ( 34°F) [RH = 100%]
Pressure (altimeter):29.98 inches Hg (1015.3 mb)
Winds:calm
Visibility:10 or more sm (16+ km)
Ceiling:at least 12,000 feet AGL
Clouds:sky clear below 12,000 feet AGL
QC Flag:automated observation with no human augmentation
Text:KHLB 050400Z AUTO 00000KT 10SM FEW035 02/01 A2998 RMK A01
Temperature: 2.0°C ( 36°F)
Dewpoint: 1.0°C ( 34°F) [RH = 93%]
Pressure (altimeter):29.98 inches Hg (1015.3 mb)
Winds:calm
Visibility:10 or more sm (16+ km)
Ceiling:at least 12,000 feet AGL
Clouds: few clouds at 3500 feet AGL
QC Flag:automated observation with no human augmentation
Text:KHLB 050340Z AUTO VRB03KT 10SM SCT034 02/02 A2998 RMK A01
Temperature: 2.0°C ( 36°F)
Dewpoint: 2.0°C ( 36°F) [RH = 100%]
Pressure (altimeter):29.98 inches Hg (1015.3 mb)
Winds:variable direction winds at 3 MPH (3 knots; 1.5 m/s)
Visibility:10 or more sm (16+ km)
Ceiling:at least 12,000 feet AGL
Clouds: scattered clouds at 3400 feet AGL
QC Flag:automated observation with no human augmentation
Text:KHLB 050320Z AUTO 00000KT 10SM FEW035 02/01 A2998 RMK A01
Temperature: 2.0°C ( 36°F)
Dewpoint: 1.0°C ( 34°F) [RH = 93%]
Pressure (altimeter):29.98 inches Hg (1015.3 mb)
Winds:calm
Visibility:10 or more sm (16+ km)
Ceiling:at least 12,000 feet AGL
Clouds: few clouds at 3500 feet AGL
QC Flag:automated observation with no human augmentation
Text:KHLB 050300Z AUTO 25004KT 10SM CLR 03/02 A2998 RMK A01
Temperature: 3.0°C ( 37°F)
Dewpoint: 2.0°C ( 36°F) [RH = 93%]
Pressure (altimeter):29.98 inches Hg (1015.3 mb)
Winds:from the WSW (250 degrees) at 5 MPH (4 knots; 2.1 m/s)
Visibility:10 or more sm (16+ km)
Ceiling:at least 12,000 feet AGL
Clouds:sky clear below 12,000 feet AGL
QC Flag:automated observation with no human augmentation
Text:KHLB 050240Z AUTO VRB05KT 10SM SCT028 SCT034 SCT039 03/01 A2998 RMK A01
Temperature: 3.0°C ( 37°F)
Dewpoint: 1.0°C ( 34°F) [RH = 87%]
Pressure (altimeter):29.98 inches Hg (1015.3 mb)
Winds:variable direction winds at 6 MPH (5 knots; 2.6 m/s)
Visibility:10 or more sm (16+ km)
Ceiling:at least 12,000 feet AGL
Clouds: scattered clouds at 2800 feet AGL, scattered clouds at 3400 feet AGL, scattered clouds at 3900 feet AGL
QC Flag:automated observation with no human augmentation
Text:KHLB 050220Z AUTO 00000KT 10SM BKN030 BKN035 BKN040 03/01 A2997 RMK A01
Temperature: 3.0°C ( 37°F)
Dewpoint: 1.0°C ( 34°F) [RH = 87%]
Pressure (altimeter):29.97 inches Hg (1015.0 mb)
Winds:calm
Visibility:10 or more sm (16+ km)
Ceiling:3000 feet AGL
Clouds: broken clouds at 3000 feet AGL, broken clouds at 3500 feet AGL, broken clouds at 4000 feet AGL
QC Flag:automated observation with no human augmentation
Text:KHLB 050200Z AUTO 00000KT 10SM BKN034 03/01 A2997 RMK A01
Temperature: 3.0°C ( 37°F)
Dewpoint: 1.0°C ( 34°F) [RH = 87%]
Pressure (altimeter):29.97 inches Hg (1015.0 mb)
Winds:calm
Visibility:10 or more sm (16+ km)
Ceiling:3400 feet AGL
Clouds: broken clouds at 3400 feet AGL
QC Flag:automated observation with no human augmentation
Text:KHLB 050140Z AUTO 00000KT 10SM BKN034 04/01 A2997 RMK A01
Temperature: 4.0°C ( 39°F)
Dewpoint: 1.0°C ( 34°F) [RH = 81%]
Pressure (altimeter):29.97 inches Hg (1015.0 mb)
Winds:calm
Visibility:10 or more sm (16+ km)
Ceiling:3400 feet AGL
Clouds: broken clouds at 3400 feet AGL
QC Flag:automated observation with no human augmentation
Text:KHLB 050120Z AUTO 00000KT 10SM OVC035 03/01 A2996 RMK A01
Temperature: 3.0°C ( 37°F)
Dewpoint: 1.0°C ( 34°F) [RH = 87%]
Pressure (altimeter):29.96 inches Hg (1014.6 mb)
Winds:calm
Visibility:10 or more sm (16+ km)
Ceiling:3500 feet AGL
Clouds: overcast cloud deck at 3500 feet AGL
QC Flag:automated observation with no human augmentation
Text:KHLB 050100Z AUTO 00000KT 10SM OVC035 03/00 A2996 RMK A01
Temperature: 3.0°C ( 37°F)
Dewpoint: 0.0°C ( 32°F) [RH = 81%]
Pressure (altimeter):29.96 inches Hg (1014.6 mb)
Winds:calm
Visibility:10 or more sm (16+ km)
Ceiling:3500 feet AGL
Clouds: overcast cloud deck at 3500 feet AGL
QC Flag:automated observation with no human augmentation
Text:KHLB 050040Z AUTO 00000KT 10SM OVC034 03/00 A2995 RMK A01
Temperature: 3.0°C ( 37°F)
Dewpoint: 0.0°C ( 32°F) [RH = 81%]
Pressure (altimeter):29.95 inches Hg (1014.3 mb)
Winds:calm
Visibility:10 or more sm (16+ km)
Ceiling:3400 feet AGL
Clouds: overcast cloud deck at 3400 feet AGL
QC Flag:automated observation with no human augmentation
Text:KHLB 050020Z AUTO 00000KT 10SM OVC035 02/M00 A2995 RMK A01
Temperature: 2.0°C ( 36°F)
Dewpoint: 0.0°C ( 32°F) [RH = 87%]
Pressure (altimeter):29.95 inches Hg (1014.3 mb)
Winds:calm
Visibility:10 or more sm (16+ km)
Ceiling:3500 feet AGL
Clouds: overcast cloud deck at 3500 feet AGL
QC Flag:automated observation with no human augmentation
Text:KHLB 050000Z AUTO 00000KT 10SM OVC033 01/M01 A2995 RMK A01
Temperature: 1.0°C ( 34°F)
Dewpoint: -1.0°C ( 30°F) [RH = 86%]
Pressure (altimeter):29.95 inches Hg (1014.3 mb)
Winds:calm
Visibility:10 or more sm (16+ km)
Ceiling:3300 feet AGL
Clouds: overcast cloud deck at 3300 feet AGL
QC Flag:automated observation with no human augmentation
Text:KHLB 042340Z AUTO 00000KT 10SM BKN031 02/M01 A2994 RMK A01
Temperature: 2.0°C ( 36°F)
Dewpoint: -1.0°C ( 30°F) [RH = 80%]
Pressure (altimeter):29.94 inches Hg (1014.0 mb)
Winds:calm
Visibility:10 or more sm (16+ km)
Ceiling:3100 feet AGL
Clouds: broken clouds at 3100 feet AGL
QC Flag:automated observation with no human augmentation
Text:KHLB 042320Z AUTO 00000KT 10SM FEW031 02/M01 A2993 RMK A01
Temperature: 2.0°C ( 36°F)
Dewpoint: -1.0°C ( 30°F) [RH = 80%]
Pressure (altimeter):29.93 inches Hg (1013.6 mb)
Winds:calm
Visibility:10 or more sm (16+ km)
Ceiling:at least 12,000 feet AGL
Clouds: few clouds at 3100 feet AGL
QC Flag:automated observation with no human augmentation
Text:KHLB 042300Z AUTO 00000KT 10SM CLR 04/M01 A2992 RMK A01
Temperature: 4.0°C ( 39°F)
Dewpoint: -1.0°C ( 30°F) [RH = 70%]
Pressure (altimeter):29.92 inches Hg (1013.3 mb)
Winds:calm
Visibility:10 or more sm (16+ km)
Ceiling:at least 12,000 feet AGL
Clouds:sky clear below 12,000 feet AGL
QC Flag:automated observation with no human augmentation
Text:KHLB 042240Z AUTO 00000KT 10SM CLR 04/M01 A2992 RMK A01
Temperature: 4.0°C ( 39°F)
Dewpoint: -1.0°C ( 30°F) [RH = 70%]
Pressure (altimeter):29.92 inches Hg (1013.3 mb)
Winds:calm
Visibility:10 or more sm (16+ km)
Ceiling:at least 12,000 feet AGL
Clouds:sky clear below 12,000 feet AGL
QC Flag:automated observation with no human augmentation
Text:KHLB 042220Z AUTO 00000KT 10SM CLR 04/M01 A2992 RMK A01
Temperature: 4.0°C ( 39°F)
Dewpoint: -1.0°C ( 30°F) [RH = 70%]
Pressure (altimeter):29.92 inches Hg (1013.3 mb)
Winds:calm
Visibility:10 or more sm (16+ km)
Ceiling:at least 12,000 feet AGL
Clouds:sky clear below 12,000 feet AGL
QC Flag:automated observation with no human augmentation
Text:KHLB 042200Z AUTO 00000KT 10SM CLR 05/M01 A2991 RMK A01
Temperature: 5.0°C ( 41°F)
Dewpoint: -1.0°C ( 30°F) [RH = 65%]
Pressure (altimeter):29.91 inches Hg (1013.0 mb)
Winds:calm
Visibility:10 or more sm (16+ km)
Ceiling:at least 12,000 feet AGL
Clouds:sky clear below 12,000 feet AGL
QC Flag:automated observation with no human augmentation
Text:KHLB 042140Z AUTO 00000KT 10SM CLR 05/M01 A2991 RMK A01
Temperature: 5.0°C ( 41°F)
Dewpoint: -1.0°C ( 30°F) [RH = 65%]
Pressure (altimeter):29.91 inches Hg (1013.0 mb)
Winds:calm
Visibility:10 or more sm (16+ km)
Ceiling:at least 12,000 feet AGL
Clouds:sky clear below 12,000 feet AGL
QC Flag:automated observation with no human augmentation
Text:KHLB 042120Z AUTO 00000KT 10SM CLR 06/M01 A2991 RMK A01
Temperature: 6.0°C ( 43°F)
Dewpoint: -1.0°C ( 30°F) [RH = 61%]
Pressure (altimeter):29.91 inches Hg (1013.0 mb)
Winds:calm
Visibility:10 or more sm (16+ km)
Ceiling:at least 12,000 feet AGL
Clouds:sky clear below 12,000 feet AGL
QC Flag:automated observation with no human augmentation
Text:KHLB 042100Z AUTO 00000KT 10SM CLR 06/M02 A2991 RMK A01
Temperature: 6.0°C ( 43°F)
Dewpoint: -2.0°C ( 28°F) [RH = 56%]
Pressure (altimeter):29.91 inches Hg (1013.0 mb)
Winds:calm
Visibility:10 or more sm (16+ km)
Ceiling:at least 12,000 feet AGL
Clouds:sky clear below 12,000 feet AGL
QC Flag:automated observation with no human augmentation
Text:KHLB 042040Z AUTO VRB04KT 10SM BKN039 06/M02 A2991 RMK A01
Temperature: 6.0°C ( 43°F)
Dewpoint: -2.0°C ( 28°F) [RH = 56%]
Pressure (altimeter):29.91 inches Hg (1013.0 mb)
Winds:variable direction winds at 5 MPH (4 knots; 2.1 m/s)
Visibility:10 or more sm (16+ km)
Ceiling:3900 feet AGL
Clouds: broken clouds at 3900 feet AGL
QC Flag:automated observation with no human augmentation
Text:KHLB 042020Z AUTO VRB04KT 10SM OVC037 06/M03 A2991 RMK A01
Temperature: 6.0°C ( 43°F)
Dewpoint: -3.0°C ( 27°F) [RH = 52%]
Pressure (altimeter):29.91 inches Hg (1013.0 mb)
Winds:variable direction winds at 5 MPH (4 knots; 2.1 m/s)
Visibility:10 or more sm (16+ km)
Ceiling:3700 feet AGL
Clouds: overcast cloud deck at 3700 feet AGL
QC Flag:automated observation with no human augmentation
Text:KHLB 042000Z AUTO 00000KT 10SM BKN032 OVC037 06/M03 A2992 RMK A01
Temperature: 6.0°C ( 43°F)
Dewpoint: -3.0°C ( 27°F) [RH = 52%]
Pressure (altimeter):29.92 inches Hg (1013.3 mb)
Winds:calm
Visibility:10 or more sm (16+ km)
Ceiling:3200 feet AGL
Clouds: broken clouds at 3200 feet AGL, overcast cloud deck at 3700 feet AGL
QC Flag:automated observation with no human augmentation
Text:KHLB 041940Z AUTO 00000KT 10SM OVC031 06/M03 A2992 RMK A01
Temperature: 6.0°C ( 43°F)
Dewpoint: -3.0°C ( 27°F) [RH = 52%]
Pressure (altimeter):29.92 inches Hg (1013.3 mb)
Winds:calm
Visibility:10 or more sm (16+ km)
Ceiling:3100 feet AGL
Clouds: overcast cloud deck at 3100 feet AGL
QC Flag:automated observation with no human augmentation
Text:KHLB 041920Z AUTO 26003KT 10SM OVC030 06/M02 A2992 RMK A01
Temperature: 6.0°C ( 43°F)
Dewpoint: -2.0°C ( 28°F) [RH = 56%]
Pressure (altimeter):29.92 inches Hg (1013.3 mb)
Winds:from the W (260 degrees) at 3 MPH (3 knots; 1.5 m/s)
Visibility:10 or more sm (16+ km)
Ceiling:3000 feet AGL
Clouds: overcast cloud deck at 3000 feet AGL
QC Flag:automated observation with no human augmentation
Text:KHLB 041900Z AUTO 00000KT 10SM OVC028 06/M02 A2993 RMK A01
Temperature: 6.0°C ( 43°F)
Dewpoint: -2.0°C ( 28°F) [RH = 56%]
Pressure (altimeter):29.93 inches Hg (1013.6 mb)
Winds:calm
Visibility:10 or more sm (16+ km)
Ceiling:2800 feet AGL
Clouds: overcast cloud deck at 2800 feet AGL
QC Flag:automated observation with no human augmentation
Text:KHLB 041840Z AUTO 00000KT 10SM OVC024 06/M02 A2993 RMK A01
Temperature: 6.0°C ( 43°F)
Dewpoint: -2.0°C ( 28°F) [RH = 56%]
Pressure (altimeter):29.93 inches Hg (1013.6 mb)
Winds:calm
Visibility:10 or more sm (16+ km)
Ceiling:2400 feet AGL
Clouds: overcast cloud deck at 2400 feet AGL
QC Flag:automated observation with no human augmentation
Text:KHLB 041820Z AUTO 00000KT 10SM OVC021 05/M01 A2994 RMK A01
Temperature: 5.0°C ( 41°F)
Dewpoint: -1.0°C ( 30°F) [RH = 65%]
Pressure (altimeter):29.94 inches Hg (1014.0 mb)
Winds:calm
Visibility:10 or more sm (16+ km)
Ceiling:2100 feet AGL
Clouds: overcast cloud deck at 2100 feet AGL
QC Flag:automated observation with no human augmentation
Text:KHLB 041800Z AUTO 00000KT 10SM OVC018 05/M00 A2995 RMK A01
Temperature: 5.0°C ( 41°F)
Dewpoint: 0.0°C ( 32°F) [RH = 70%]
Pressure (altimeter):29.95 inches Hg (1014.3 mb)
Winds:calm
Visibility:10 or more sm (16+ km)
Ceiling:1800 feet AGL
Clouds: overcast cloud deck at 1800 feet AGL
QC Flag:automated observation with no human augmentation
Text:KHLB 041740Z AUTO 00000KT 10SM OVC017 05/01 A2997 RMK A01
Temperature: 5.0°C ( 41°F)
Dewpoint: 1.0°C ( 34°F) [RH = 75%]
Pressure (altimeter):29.97 inches Hg (1015.0 mb)
Winds:calm
Visibility:10 or more sm (16+ km)
Ceiling:1700 feet AGL
Clouds: overcast cloud deck at 1700 feet AGL
QC Flag:automated observation with no human augmentation
Text:KHLB 041720Z AUTO 00000KT 10SM OVC016 05/01 A2998 RMK A01
Temperature: 5.0°C ( 41°F)
Dewpoint: 1.0°C ( 34°F) [RH = 75%]
Pressure (altimeter):29.98 inches Hg (1015.3 mb)
Winds:calm
Visibility:10 or more sm (16+ km)
Ceiling:1600 feet AGL
Clouds: overcast cloud deck at 1600 feet AGL
QC Flag:automated observation with no human augmentation
Text:KHLB 041700Z AUTO 00000KT 10SM OVC017 05/01 A2999 RMK A01
Temperature: 5.0°C ( 41°F)
Dewpoint: 1.0°C ( 34°F) [RH = 75%]
Pressure (altimeter):29.99 inches Hg (1015.7 mb)
Winds:calm
Visibility:10 or more sm (16+ km)
Ceiling:1700 feet AGL
Clouds: overcast cloud deck at 1700 feet AGL
QC Flag:automated observation with no human augmentation
Text:KHLB 041640Z AUTO 00000KT 10SM OVC017 05/01 A3000 RMK A01
Temperature: 5.0°C ( 41°F)
Dewpoint: 1.0°C ( 34°F) [RH = 75%]
Pressure (altimeter):30.00 inches Hg (1016.0 mb)
Winds:calm
Visibility:10 or more sm (16+ km)
Ceiling:1700 feet AGL
Clouds: overcast cloud deck at 1700 feet AGL
QC Flag:automated observation with no human augmentation
Text:KHLB 041620Z AUTO VRB04KT 10SM BKN017 OVC033 05/02 A3001 RMK A01
Temperature: 5.0°C ( 41°F)
Dewpoint: 2.0°C ( 36°F) [RH = 81%]
Pressure (altimeter):30.01 inches Hg (1016.3 mb)
Winds:variable direction winds at 5 MPH (4 knots; 2.1 m/s)
Visibility:10 or more sm (16+ km)
Ceiling:1700 feet AGL
Clouds: broken clouds at 1700 feet AGL, overcast cloud deck at 3300 feet AGL
QC Flag:automated observation with no human augmentation
Text:KHLB 041600Z AUTO VRB03KT 10SM BKN020 OVC033 04/01 A3002 RMK A01
Temperature: 4.0°C ( 39°F)
Dewpoint: 1.0°C ( 34°F) [RH = 81%]
Pressure (altimeter):30.02 inches Hg (1016.7 mb)
Winds:variable direction winds at 3 MPH (3 knots; 1.5 m/s)
Visibility:10 or more sm (16+ km)
Ceiling:2000 feet AGL
Clouds: broken clouds at 2000 feet AGL, overcast cloud deck at 3300 feet AGL
QC Flag:automated observation with no human augmentation
Text:KHLB 041540Z AUTO VRB03KT 10SM BKN022 OVC033 04/01 A3003 RMK A01
Temperature: 4.0°C ( 39°F)
Dewpoint: 1.0°C ( 34°F) [RH = 81%]
Pressure (altimeter):30.03 inches Hg (1017.0 mb)
Winds:variable direction winds at 3 MPH (3 knots; 1.5 m/s)
Visibility:10 or more sm (16+ km)
Ceiling:2200 feet AGL
Clouds: broken clouds at 2200 feet AGL, overcast cloud deck at 3300 feet AGL
QC Flag:automated observation with no human augmentation
Text:KHLB 041520Z AUTO 00000KT 10SM OVC032 03/01 A3003 RMK A01
Temperature: 3.0°C ( 37°F)
Dewpoint: 1.0°C ( 34°F) [RH = 87%]
Pressure (altimeter):30.03 inches Hg (1017.0 mb)
Winds:calm
Visibility:10 or more sm (16+ km)
Ceiling:3200 feet AGL
Clouds: overcast cloud deck at 3200 feet AGL
QC Flag:automated observation with no human augmentation
Text:KHLB 041500Z AUTO 00000KT 10SM BKN031 03/01 A3003 RMK A01
Temperature: 3.0°C ( 37°F)
Dewpoint: 1.0°C ( 34°F) [RH = 87%]
Pressure (altimeter):30.03 inches Hg (1017.0 mb)
Winds:calm
Visibility:10 or more sm (16+ km)
Ceiling:3100 feet AGL
Clouds: broken clouds at 3100 feet AGL
QC Flag:automated observation with no human augmentation
Text:KHLB 041440Z AUTO 00000KT 10SM FEW035 03/00 A3003 RMK A01
Temperature: 3.0°C ( 37°F)
Dewpoint: 0.0°C ( 32°F) [RH = 81%]
Pressure (altimeter):30.03 inches Hg (1017.0 mb)
Winds:calm
Visibility:10 or more sm (16+ km)
Ceiling:at least 12,000 feet AGL
Clouds: few clouds at 3500 feet AGL
QC Flag:automated observation with no human augmentation